National Weather Service Raw Text Product

Displaying AFOS PIL: TAFDSM Received: 2017-11-15 05:55 UTC


735 
FTUS43 KDMX 150555 CCA
TAFDSM
TAF COR
KDSM 150555Z 1506/1606 19008KT 3SM -RADZ BR OVC004
     FM150800 24006KT 6SM BR SCT004 OVC011
     FM151000 29009KT P6SM BKN011
     FM151100 30012G19KT P6SM SCT014
     FM151500 32013G21KT P6SM FEW250
     FM160100 32009KT P6SM FEW250=